sensor_id;sensor_type;location;lat;lon;timestamp;temperature;humidity
418;DHT22;49;48.530;9.200;2022-10-30T00:00:31;17.90;83.60
418;DHT22;49;48.530;9.200;2022-10-30T00:02:58;17.70;83.80
418;DHT22;49;48.530;9.200;2022-10-30T00:05:26;17.50;85.00
418;DHT22;49;48.530;9.200;2022-10-30T00:07:54;17.40;85.80
418;DHT22;49;48.530;9.200;2022-10-30T00:10:22;17.50;85.00
418;DHT22;49;48.530;9.200;2022-10-30T00:12:49;17.50;84.80
418;DHT22;49;48.530;9.200;2022-10-30T00:15:17;17.50;84.50
418;DHT22;49;48.530;9.200;2022-10-30T00:17:44;17.60;83.70
418;DHT22;49;48.530;9.200;2022-10-30T00:20:10;17.80;83.00
418;DHT22;49;48.530;9.200;2022-10-30T00:22:37;18.10;81.30
418;DHT22;49;48.530;9.200;2022-10-30T00:25:05;18.30;79.30
418;DHT22;49;48.530;9.200;2022-10-30T00:27:33;18.50;78.20
418;DHT22;49;48.530;9.200;2022-10-30T00:30:00;18.60;77.20
418;DHT22;49;48.530;9.200;2022-10-30T00:32:27;18.60;76.90
418;DHT22;49;48.530;9.200;2022-10-30T00:34:54;18.50;77.30
418;DHT22;49;48.530;9.200;2022-10-30T00:37:21;18.10;78.70
418;DHT22;49;48.530;9.200;2022-10-30T00:39:48;17.90;79.60
418;DHT22;49;48.530;9.200;2022-10-30T00:42:15;17.00;84.70
418;DHT22;49;48.530;9.200;2022-10-30T00:44:47;16.70;88.00
418;DHT22;49;48.530;9.200;2022-10-30T00:47:18;17.10;87.00
418;DHT22;49;48.530;9.200;2022-10-30T00:49:52;17.70;83.70
418;DHT22;49;48.530;9.200;2022-10-30T00:52:23;18.00;81.40
418;DHT22;49;48.530;9.200;2022-10-30T00:54:52;18.40;79.30
418;DHT22;49;48.530;9.200;2022-10-30T00:57:19;18.40;78.80
418;DHT22;49;48.530;9.200;2022-10-30T00:59:48;18.50;78.30
418;DHT22;49;48.530;9.200;2022-10-30T01:02:16;18.60;78.00
418;DHT22;49;48.530;9.200;2022-10-30T01:04:45;18.60;77.80
418;DHT22;49;48.530;9.200;2022-10-30T01:07:14;18.50;77.70
418;DHT22;49;48.530;9.200;2022-10-30T01:09:42;18.50;77.60
418;DHT22;49;48.530;9.200;2022-10-30T01:12:09;18.40;78.30
418;DHT22;49;48.530;9.200;2022-10-30T01:14:38;18.20;79.20
418;DHT22;49;48.530;9.200;2022-10-30T01:20:14;18.20;80.20
418;DHT22;49;48.530;9.200;2022-10-30T01:22:53;18.20;80.00
418;DHT22;49;48.530;9.200;2022-10-30T01:25:37;18.30;79.70
418;DHT22;49;48.530;9.200;2022-10-30T01:28:25;18.20;80.20
418;DHT22;49;48.530;9.200;2022-10-30T01:31:02;18.30;78.90
418;DHT22;49;48.530;9.200;2022-10-30T01:33:39;18.10;79.20
418;DHT22;49;48.530;9.200;2022-10-30T01:36:17;17.70;81.10
418;DHT22;49;48.530;9.200;2022-10-30T01:38:49;17.80;80.90
418;DHT22;49;48.530;9.200;2022-10-30T01:41:17;17.70;81.60
418;DHT22;49;48.530;9.200;2022-10-30T01:43:46;17.80;81.00
418;DHT22;49;48.530;9.200;2022-10-30T01:46:27;17.80;80.80
418;DHT22;49;48.530;9.200;2022-10-30T01:49:21;17.60;81.80
418;DHT22;49;48.530;9.200;2022-10-30T01:52:00;17.30;83.30
418;DHT22;49;48.530;9.200;2022-10-30T01:54:36;17.10;84.90
418;DHT22;49;48.530;9.200;2022-10-30T01:57:11;17.00;85.40
418;DHT22;49;48.530;9.200;2022-10-30T01:59:40;16.90;85.50
418;DHT22;49;48.530;9.200;2022-10-30T02:02:10;16.70;86.20
418;DHT22;49;48.530;9.200;2022-10-30T02:04:39;16.60;87.40
418;DHT22;49;48.530;9.200;2022-10-30T02:07:06;16.60;87.10
418;DHT22;49;48.530;9.200;2022-10-30T02:09:34;16.80;86.50
418;DHT22;49;48.530;9.200;2022-10-30T02:12:02;16.50;88.30
418;DHT22;49;48.530;9.200;2022-10-30T02:14:31;16.40;89.30
418;DHT22;49;48.530;9.200;2022-10-30T02:17:01;16.80;87.30
418;DHT22;49;48.530;9.200;2022-10-30T02:19:29;17.10;84.90
418;DHT22;49;48.530;9.200;2022-10-30T02:21:57;17.50;83.60
418;DHT22;49;48.530;9.200;2022-10-30T02:24:24;17.60;81.80
418;DHT22;49;48.530;9.200;2022-10-30T02:26:51;17.80;80.50
418;DHT22;49;48.530;9.200;2022-10-30T02:29:18;17.70;80.40
418;DHT22;49;48.530;9.200;2022-10-30T02:31:46;17.60;80.90
418;DHT22;49;48.530;9.200;2022-10-30T02:34:13;17.40;82.60
418;DHT22;49;48.530;9.200;2022-10-30T02:36:40;17.10;84.10
418;DHT22;49;48.530;9.200;2022-10-30T02:39:08;16.90;85.40
418;DHT22;49;48.530;9.200;2022-10-30T02:41:35;17.20;83.50
418;DHT22;49;48.530;9.200;2022-10-30T02:44:02;17.60;82.50
418;DHT22;49;48.530;9.200;2022-10-30T02:46:31;17.70;80.60
418;DHT22;49;48.530;9.200;2022-10-30T02:48:57;17.70;80.40
418;DHT22;49;48.530;9.200;2022-10-30T02:51:24;17.80;79.60
418;DHT22;49;48.530;9.200;2022-10-30T02:53:51;17.90;79.30
418;DHT22;49;48.530;9.200;2022-10-30T02:56:19;17.90;79.10
418;DHT22;49;48.530;9.200;2022-10-30T02:58:46;17.90;79.30
418;DHT22;49;48.530;9.200;2022-10-30T03:01:15;17.90;79.10
418;DHT22;49;48.530;9.200;2022-10-30T03:03:43;17.80;79.20
418;DHT22;49;48.530;9.200;2022-10-30T03:06:12;17.90;78.80
418;DHT22;49;48.530;9.200;2022-10-30T03:08:40;17.90;78.60
418;DHT22;49;48.530;9.200;2022-10-30T03:11:08;17.90;78.80
418;DHT22;49;48.530;9.200;2022-10-30T03:13:37;17.90;78.80
418;DHT22;49;48.530;9.200;2022-10-30T03:16:07;17.90;78.60
418;DHT22;49;48.530;9.200;2022-10-30T03:18:35;17.90;78.80
418;DHT22;49;48.530;9.200;2022-10-30T03:21:04;17.90;78.20
418;DHT22;49;48.530;9.200;2022-10-30T03:23:31;17.80;78.70
418;DHT22;49;48.530;9.200;2022-10-30T03:25:58;17.80;79.20
418;DHT22;49;48.530;9.200;2022-10-30T03:28:27;17.80;78.90
418;DHT22;49;48.530;9.200;2022-10-30T03:30:59;17.80;79.10
418;DHT22;49;48.530;9.200;2022-10-30T03:33:26;17.70;79.10
418;DHT22;49;48.530;9.200;2022-10-30T03:35:53;17.70;79.40
418;DHT22;49;48.530;9.200;2022-10-30T03:38:20;17.70;79.20
418;DHT22;49;48.530;9.200;2022-10-30T03:40:47;17.70;79.10
418;DHT22;49;48.530;9.200;2022-10-30T03:43:14;17.70;79.20
418;DHT22;49;48.530;9.200;2022-10-30T03:45:45;17.60;79.40
418;DHT22;49;48.530;9.200;2022-10-30T03:48:14;17.50;79.90
418;DHT22;49;48.530;9.200;2022-10-30T03:50:41;17.50;80.10
418;DHT22;49;48.530;9.200;2022-10-30T03:53:08;17.50;79.80
418;DHT22;49;48.530;9.200;2022-10-30T03:55:35;17.40;79.50
418;DHT22;49;48.530;9.200;2022-10-30T03:58:02;17.40;79.80
418;DHT22;49;48.530;9.200;2022-10-30T04:00:29;17.40;80.10
418;DHT22;49;48.530;9.200;2022-10-30T04:02:56;17.40;79.30
418;DHT22;49;48.530;9.200;2022-10-30T04:05:26;16.80;82.10
418;DHT22;49;48.530;9.200;2022-10-30T04:07:58;16.00;87.60
418;DHT22;49;48.530;9.200;2022-10-30T04:10:25;15.60;90.30
418;DHT22;49;48.530;9.200;2022-10-30T04:12:58;15.30;91.20
418;DHT22;49;48.530;9.200;2022-10-30T04:15:25;14.90;92.30
418;DHT22;49;48.530;9.200;2022-10-30T04:17:52;14.90;92.70
418;DHT22;49;48.530;9.200;2022-10-30T04:20:21;15.00;92.70
418;DHT22;49;48.530;9.200;2022-10-30T04:22:55;15.00;92.90
418;DHT22;49;48.530;9.200;2022-10-30T04:25:22;14.70;93.50
418;DHT22;49;48.530;9.200;2022-10-30T04:27:49;15.00;92.60
418;DHT22;49;48.530;9.200;2022-10-30T04:30:18;15.20;92.20
418;DHT22;49;48.530;9.200;2022-10-30T04:32:46;15.30;91.90
418;DHT22;49;48.530;9.200;2022-10-30T04:35:13;15.10;92.50
418;DHT22;49;48.530;9.200;2022-10-30T04:37:40;15.10;92.50
418;DHT22;49;48.530;9.200;2022-10-30T04:40:10;15.20;92.30
418;DHT22;49;48.530;9.200;2022-10-30T04:42:37;15.30;91.90
418;DHT22;49;48.530;9.200;2022-10-30T04:45:04;15.40;92.00
418;DHT22;49;48.530;9.200;2022-10-30T04:47:32;15.30;91.90
418;DHT22;49;48.530;9.200;2022-10-30T04:49:58;15.20;92.30
418;DHT22;49;48.530;9.200;2022-10-30T04:52:25;15.30;91.90
418;DHT22;49;48.530;9.200;2022-10-30T04:54:52;15.50;91.10
418;DHT22;49;48.530;9.200;2022-10-30T04:57:20;15.90;90.40
418;DHT22;49;48.530;9.200;2022-10-30T04:59:47;16.20;87.90
418;DHT22;49;48.530;9.200;2022-10-30T05:02:14;16.20;87.80
418;DHT22;49;48.530;9.200;2022-10-30T05:04:43;16.20;88.40
418;DHT22;49;48.530;9.200;2022-10-30T05:07:10;16.20;87.70
418;DHT22;49;48.530;9.200;2022-10-30T05:09:38;16.40;86.60
418;DHT22;49;48.530;9.200;2022-10-30T05:12:05;16.60;85.20
418;DHT22;49;48.530;9.200;2022-10-30T05:14:34;16.50;84.50
418;DHT22;49;48.530;9.200;2022-10-30T05:17:01;16.30;86.10
418;DHT22;49;48.530;9.200;2022-10-30T05:19:27;15.90;87.50
418;DHT22;49;48.530;9.200;2022-10-30T05:21:54;16.10;87.30
418;DHT22;49;48.530;9.200;2022-10-30T05:24:21;16.30;86.00
418;DHT22;49;48.530;9.200;2022-10-30T05:26:49;16.50;84.60
418;DHT22;49;48.530;9.200;2022-10-30T05:29:16;16.40;84.30
418;DHT22;49;48.530;9.200;2022-10-30T05:31:44;16.20;85.40
418;DHT22;49;48.530;9.200;2022-10-30T05:34:11;16.40;85.10
418;DHT22;49;48.530;9.200;2022-10-30T05:36:37;16.50;83.80
418;DHT22;49;48.530;9.200;2022-10-30T05:39:04;16.50;83.70
418;DHT22;49;48.530;9.200;2022-10-30T05:41:31;16.40;83.20
418;DHT22;49;48.530;9.200;2022-10-30T05:43:58;16.30;84.30
418;DHT22;49;48.530;9.200;2022-10-30T05:46:25;16.40;84.00
418;DHT22;49;48.530;9.200;2022-10-30T05:48:53;16.30;84.10
418;DHT22;49;48.530;9.200;2022-10-30T05:51:20;16.10;85.10
418;DHT22;49;48.530;9.200;2022-10-30T05:53:47;16.20;84.50
418;DHT22;49;48.530;9.200;2022-10-30T05:56:14;15.90;85.20
418;DHT22;49;48.530;9.200;2022-10-30T05:58:41;15.70;87.00
418;DHT22;49;48.530;9.200;2022-10-30T06:01:08;15.70;86.60
418;DHT22;49;48.530;9.200;2022-10-30T06:03:35;15.70;86.70
418;DHT22;49;48.530;9.200;2022-10-30T06:06:03;15.80;86.10
418;DHT22;49;48.530;9.200;2022-10-30T06:08:30;15.70;86.80
418;DHT22;49;48.530;9.200;2022-10-30T06:10:57;15.50;88.50
418;DHT22;49;48.530;9.200;2022-10-30T06:13:24;15.30;89.30
418;DHT22;49;48.530;9.200;2022-10-30T06:15:53;15.20;90.00
418;DHT22;49;48.530;9.200;2022-10-30T06:18:20;15.10;89.70
418;DHT22;49;48.530;9.200;2022-10-30T06:20:47;15.30;88.90
418;DHT22;49;48.530;9.200;2022-10-30T06:23:15;15.90;86.10
418;DHT22;49;48.530;9.200;2022-10-30T06:25:42;16.20;84.10
418;DHT22;49;48.530;9.200;2022-10-30T06:28:09;16.40;82.60
418;DHT22;49;48.530;9.200;2022-10-30T06:30:38;16.60;83.90
418;DHT22;49;48.530;9.200;2022-10-30T06:33:06;16.90;81.40
418;DHT22;49;48.530;9.200;2022-10-30T06:35:32;17.00;80.70
418;DHT22;49;48.530;9.200;2022-10-30T06:38:00;17.00;80.00
418;DHT22;49;48.530;9.200;2022-10-30T06:40:28;17.10;79.70
418;DHT22;49;48.530;9.200;2022-10-30T06:42:55;17.10;78.90
418;DHT22;49;48.530;9.200;2022-10-30T06:45:23;16.70;80.10
418;DHT22;49;48.530;9.200;2022-10-30T06:47:50;16.70;81.40
418;DHT22;49;48.530;9.200;2022-10-30T06:50:19;16.80;80.90
418;DHT22;49;48.530;9.200;2022-10-30T06:52:46;16.90;80.40
418;DHT22;49;48.530;9.200;2022-10-30T06:55:14;16.60;82.70
418;DHT22;49;48.530;9.200;2022-10-30T06:57:42;16.70;82.30
418;DHT22;49;48.530;9.200;2022-10-30T07:00:10;17.20;83.30
418;DHT22;49;48.530;9.200;2022-10-30T07:02:37;18.30;80.00
418;DHT22;49;48.530;9.200;2022-10-30T07:05:04;19.20;71.10
418;DHT22;49;48.530;9.200;2022-10-30T07:07:31;19.90;67.70
418;DHT22;49;48.530;9.200;2022-10-30T07:09:58;20.10;64.10
418;DHT22;49;48.530;9.200;2022-10-30T07:12:25;20.10;61.30
418;DHT22;49;48.530;9.200;2022-10-30T07:14:53;19.90;62.40
418;DHT22;49;48.530;9.200;2022-10-30T07:17:20;19.70;63.10
418;DHT22;49;48.530;9.200;2022-10-30T07:19:47;19.40;64.50
418;DHT22;49;48.530;9.200;2022-10-30T07:22:14;19.30;65.90
418;DHT22;49;48.530;9.200;2022-10-30T07:24:41;19.10;68.00
418;DHT22;49;48.530;9.200;2022-10-30T07:27:07;19.10;69.40
418;DHT22;49;48.530;9.200;2022-10-30T07:29:34;19.30;69.00
418;DHT22;49;48.530;9.200;2022-10-30T07:32:03;19.50;68.50
418;DHT22;49;48.530;9.200;2022-10-30T07:34:30;19.70;67.00
418;DHT22;49;48.530;9.200;2022-10-30T07:36:57;19.80;66.10
418;DHT22;49;48.530;9.200;2022-10-30T07:39:24;19.90;63.80
418;DHT22;49;48.530;9.200;2022-10-30T07:41:52;19.50;64.80
418;DHT22;49;48.530;9.200;2022-10-30T07:44:20;18.60;71.20
418;DHT22;49;48.530;9.200;2022-10-30T07:46:47;18.20;74.60
418;DHT22;49;48.530;9.200;2022-10-30T07:49:15;18.30;74.20
418;DHT22;49;48.530;9.200;2022-10-30T07:51:42;18.40;73.80
418;DHT22;49;48.530;9.200;2022-10-30T07:54:09;18.10;74.70
418;DHT22;49;48.530;9.200;2022-10-30T07:56:36;17.90;76.80
418;DHT22;49;48.530;9.200;2022-10-30T07:59:02;17.70;78.50
418;DHT22;49;48.530;9.200;2022-10-30T08:01:30;17.40;81.30
418;DHT22;49;48.530;9.200;2022-10-30T08:03:57;17.50;81.30
418;DHT22;49;48.530;9.200;2022-10-30T08:06:25;17.70;80.90
418;DHT22;49;48.530;9.200;2022-10-30T08:08:52;17.40;82.70
418;DHT22;49;48.530;9.200;2022-10-30T08:11:19;17.70;81.90
418;DHT22;49;48.530;9.200;2022-10-30T08:13:46;17.70;81.90
418;DHT22;49;48.530;9.200;2022-10-30T08:16:12;17.70;82.20
418;DHT22;49;48.530;9.200;2022-10-30T08:18:39;17.80;83.70
418;DHT22;49;48.530;9.200;2022-10-30T08:21:07;17.90;81.90
418;DHT22;49;48.530;9.200;2022-10-30T08:23:35;17.80;83.10
418;DHT22;49;48.530;9.200;2022-10-30T08:26:02;17.90;83.20
418;DHT22;49;48.530;9.200;2022-10-30T08:28:29;18.10;81.30
418;DHT22;49;48.530;9.200;2022-10-30T08:30:57;18.20;81.30
418;DHT22;49;48.530;9.200;2022-10-30T08:33:23;18.40;79.70
418;DHT22;49;48.530;9.200;2022-10-30T08:35:52;18.50;79.90
418;DHT22;49;48.530;9.200;2022-10-30T08:38:21;18.50;79.90
418;DHT22;49;48.530;9.200;2022-10-30T08:40:50;18.70;79.30
418;DHT22;49;48.530;9.200;2022-10-30T08:43:17;19.10;76.60
418;DHT22;49;48.530;9.200;2022-10-30T08:45:45;19.00;77.00
418;DHT22;49;48.530;9.200;2022-10-30T08:48:14;18.80;77.20
418;DHT22;49;48.530;9.200;2022-10-30T08:50:41;18.70;78.10
418;DHT22;49;48.530;9.200;2022-10-30T08:53:11;18.60;78.70
418;DHT22;49;48.530;9.200;2022-10-30T08:55:40;19.00;78.00
418;DHT22;49;48.530;9.200;2022-10-30T08:58:08;19.60;73.20
418;DHT22;49;48.530;9.200;2022-10-30T09:00:35;20.10;69.70
418;DHT22;49;48.530;9.200;2022-10-30T09:03:02;20.20;68.90
418;DHT22;49;48.530;9.200;2022-10-30T09:05:29;20.30;67.40
418;DHT22;49;48.530;9.200;2022-10-30T09:07:57;20.10;66.60
418;DHT22;49;48.530;9.200;2022-10-30T09:10:25;19.90;67.70
418;DHT22;49;48.530;9.200;2022-10-30T09:12:55;19.50;69.60
418;DHT22;49;48.530;9.200;2022-10-30T09:15:24;19.80;68.20
418;DHT22;49;48.530;9.200;2022-10-30T09:17:55;20.50;64.30
418;DHT22;49;48.530;9.200;2022-10-30T09:20:22;20.80;61.00
418;DHT22;49;48.530;9.200;2022-10-30T09:22:50;21.00;59.60
418;DHT22;49;48.530;9.200;2022-10-30T09:25:16;21.10;58.70
418;DHT22;49;48.530;9.200;2022-10-30T09:27:43;21.40;56.10
418;DHT22;49;48.530;9.200;2022-10-30T09:30:11;21.40;53.50
418;DHT22;49;48.530;9.200;2022-10-30T09:32:39;21.50;54.30
418;DHT22;49;48.530;9.200;2022-10-30T09:35:07;21.30;55.20
418;DHT22;49;48.530;9.200;2022-10-30T09:37:35;20.90;57.10
418;DHT22;49;48.530;9.200;2022-10-30T09:40:03;21.20;57.50
418;DHT22;49;48.530;9.200;2022-10-30T09:42:40;21.60;55.30
418;DHT22;49;48.530;9.200;2022-10-30T09:45:25;22.00;53.60
418;DHT22;49;48.530;9.200;2022-10-30T09:48:06;22.40;52.90
418;DHT22;49;48.530;9.200;2022-10-30T09:50:41;21.80;53.20
418;DHT22;49;48.530;9.200;2022-10-30T09:53:15;21.80;55.10
418;DHT22;49;48.530;9.200;2022-10-30T09:55:54;21.90;54.80
418;DHT22;49;48.530;9.200;2022-10-30T09:58:28;22.10;53.60
418;DHT22;49;48.530;9.200;2022-10-30T10:01:08;21.90;54.00
418;DHT22;49;48.530;9.200;2022-10-30T10:03:49;21.00;58.50
418;DHT22;49;48.530;9.200;2022-10-30T10:06:19;20.80;60.00
418;DHT22;49;48.530;9.200;2022-10-30T10:08:51;21.00;59.60
418;DHT22;49;48.530;9.200;2022-10-30T10:11:22;20.80;60.10
418;DHT22;49;48.530;9.200;2022-10-30T10:13:52;20.90;60.50
418;DHT22;49;48.530;9.200;2022-10-30T10:16:22;21.70;56.70
418;DHT22;49;48.530;9.200;2022-10-30T10:18:57;22.20;53.30
418;DHT22;49;48.530;9.200;2022-10-30T10:21:27;22.30;51.70
418;DHT22;49;48.530;9.200;2022-10-30T10:23:57;21.70;54.60
418;DHT22;49;48.530;9.200;2022-10-30T10:26:33;21.90;56.20
418;DHT22;49;48.530;9.200;2022-10-30T10:29:13;22.70;50.40
418;DHT22;49;48.530;9.200;2022-10-30T10:31:47;23.20;47.40
418;DHT22;49;48.530;9.200;2022-10-30T10:34:38;23.00;48.90
418;DHT22;49;48.530;9.200;2022-10-30T10:37:15;23.10;46.20
418;DHT22;49;48.530;9.200;2022-10-30T10:39:57;23.20;43.40
418;DHT22;49;48.530;9.200;2022-10-30T10:42:34;22.60;44.00
418;DHT22;49;48.530;9.200;2022-10-30T10:45:22;22.80;44.90
418;DHT22;49;48.530;9.200;2022-10-30T10:48:08;23.50;42.30
418;DHT22;49;48.530;9.200;2022-10-30T10:50:44;23.30;43.50
418;DHT22;49;48.530;9.200;2022-10-30T10:53:19;23.50;42.10
418;DHT22;49;48.530;9.200;2022-10-30T10:55:50;23.60;40.50
418;DHT22;49;48.530;9.200;2022-10-30T10:58:24;23.10;42.80
418;DHT22;49;48.530;9.200;2022-10-30T11:00:55;23.80;41.20
418;DHT22;49;48.530;9.200;2022-10-30T11:03:27;24.30;37.80
418;DHT22;49;48.530;9.200;2022-10-30T11:06:00;24.70;36.90
418;DHT22;49;48.530;9.200;2022-10-30T11:08:32;24.70;34.00
418;DHT22;49;48.530;9.200;2022-10-30T11:11:01;24.70;34.40
418;DHT22;49;48.530;9.200;2022-10-30T11:13:29;24.90;31.50
418;DHT22;49;48.530;9.200;2022-10-30T11:16:01;24.40;33.80
418;DHT22;49;48.530;9.200;2022-10-30T11:18:30;24.70;36.30
418;DHT22;49;48.530;9.200;2022-10-30T11:21:02;25.10;30.90
418;DHT22;49;48.530;9.200;2022-10-30T11:23:35;24.50;29.90
418;DHT22;49;48.530;9.200;2022-10-30T11:26:04;23.70;31.90
418;DHT22;49;48.530;9.200;2022-10-30T11:28:53;23.60;34.60
418;DHT22;49;48.530;9.200;2022-10-30T11:31:23;24.10;33.50
418;DHT22;49;48.530;9.200;2022-10-30T11:33:52;24.60;33.00
418;DHT22;49;48.530;9.200;2022-10-30T11:36:23;25.00;32.00
418;DHT22;49;48.530;9.200;2022-10-30T11:38:51;25.40;30.00
418;DHT22;49;48.530;9.200;2022-10-30T11:41:20;25.60;28.60
418;DHT22;49;48.530;9.200;2022-10-30T11:43:47;25.60;27.80
418;DHT22;49;48.530;9.200;2022-10-30T11:46:20;25.70;27.80
418;DHT22;49;48.530;9.200;2022-10-30T11:48:48;25.80;27.10
418;DHT22;49;48.530;9.200;2022-10-30T11:51:31;26.00;26.40
418;DHT22;49;48.530;9.200;2022-10-30T11:53:59;26.10;26.30
418;DHT22;49;48.530;9.200;2022-10-30T11:56:27;26.20;25.80
418;DHT22;49;48.530;9.200;2022-10-30T11:58:57;26.20;26.30
418;DHT22;49;48.530;9.200;2022-10-30T12:01:27;26.30;25.70
418;DHT22;49;48.530;9.200;2022-10-30T12:03:55;26.40;25.10
418;DHT22;49;48.530;9.200;2022-10-30T12:06:27;26.60;24.80
418;DHT22;49;48.530;9.200;2022-10-30T12:09:00;26.60;25.00
418;DHT22;49;48.530;9.200;2022-10-30T12:11:29;26.60;24.80
418;DHT22;49;48.530;9.200;2022-10-30T12:13:57;26.70;25.40
418;DHT22;49;48.530;9.200;2022-10-30T12:16:24;26.80;25.20
418;DHT22;49;48.530;9.200;2022-10-30T12:18:53;26.90;25.60
418;DHT22;49;48.530;9.200;2022-10-30T12:21:23;27.00;25.60
418;DHT22;49;48.530;9.200;2022-10-30T12:23:54;27.00;25.30
418;DHT22;49;48.530;9.200;2022-10-30T12:26:23;27.00;25.10
418;DHT22;49;48.530;9.200;2022-10-30T12:28:55;27.10;25.30
418;DHT22;49;48.530;9.200;2022-10-30T12:31:25;27.20;24.50
418;DHT22;49;48.530;9.200;2022-10-30T12:34:05;27.20;23.70
418;DHT22;49;48.530;9.200;2022-10-30T12:36:37;27.20;23.40
418;DHT22;49;48.530;9.200;2022-10-30T12:39:12;27.30;23.60
418;DHT22;49;48.530;9.200;2022-10-30T12:41:44;27.40;24.90
418;DHT22;49;48.530;9.200;2022-10-30T12:44:15;27.30;23.60
418;DHT22;49;48.530;9.200;2022-10-30T12:46:46;27.40;22.80
418;DHT22;49;48.530;9.200;2022-10-30T12:49:21;27.40;22.90
418;DHT22;49;48.530;9.200;2022-10-30T12:51:55;27.50;23.70
418;DHT22;49;48.530;9.200;2022-10-30T12:54:29;27.30;24.50
418;DHT22;49;48.530;9.200;2022-10-30T12:57:07;27.20;24.20
418;DHT22;49;48.530;9.200;2022-10-30T12:59:41;27.10;25.00
418;DHT22;49;48.530;9.200;2022-10-30T13:02:18;26.80;25.10
418;DHT22;49;48.530;9.200;2022-10-30T13:05:00;26.00;26.90
418;DHT22;49;48.530;9.200;2022-10-30T13:07:35;26.00;28.00
418;DHT22;49;48.530;9.200;2022-10-30T13:10:12;26.60;26.50
418;DHT22;49;48.530;9.200;2022-10-30T13:12:46;26.80;26.00
418;DHT22;49;48.530;9.200;2022-10-30T13:15:20;26.80;26.40
418;DHT22;49;48.530;9.200;2022-10-30T13:17:50;26.80;25.20
418;DHT22;49;48.530;9.200;2022-10-30T13:20:27;27.10;24.60
418;DHT22;49;48.530;9.200;2022-10-30T13:23:00;27.40;22.60
418;DHT22;49;48.530;9.200;2022-10-30T13:25:33;27.60;22.90
418;DHT22;49;48.530;9.200;2022-10-30T13:28:06;27.70;22.20
418;DHT22;49;48.530;9.200;2022-10-30T13:30:39;27.90;23.00
418;DHT22;49;48.530;9.200;2022-10-30T13:33:13;27.80;21.60
418;DHT22;49;48.530;9.200;2022-10-30T13:35:45;27.80;22.30
418;DHT22;49;48.530;9.200;2022-10-30T13:38:36;27.90;21.70
418;DHT22;49;48.530;9.200;2022-10-30T13:41:12;27.90;21.10
418;DHT22;49;48.530;9.200;2022-10-30T13:43:50;27.90;21.20
418;DHT22;49;48.530;9.200;2022-10-30T13:46:29;27.90;19.60
418;DHT22;49;48.530;9.200;2022-10-30T13:49:08;27.90;20.20
418;DHT22;49;48.530;9.200;2022-10-30T13:51:40;27.80;20.80
418;DHT22;49;48.530;9.200;2022-10-30T13:54:13;27.90;21.20
418;DHT22;49;48.530;9.200;2022-10-30T13:56:43;28.00;21.10
418;DHT22;49;48.530;9.200;2022-10-30T13:59:30;28.00;20.80
418;DHT22;49;48.530;9.200;2022-10-30T14:02:11;28.00;20.90
418;DHT22;49;48.530;9.200;2022-10-30T14:04:47;27.90;21.80
418;DHT22;49;48.530;9.200;2022-10-30T14:07:24;27.70;21.80
418;DHT22;49;48.530;9.200;2022-10-30T14:09:58;27.60;22.40
418;DHT22;49;48.530;9.200;2022-10-30T14:15:32;27.50;21.60
418;DHT22;49;48.530;9.200;2022-10-30T14:18:25;27.40;21.10
418;DHT22;49;48.530;9.200;2022-10-30T14:20:55;27.50;21.20
418;DHT22;49;48.530;9.200;2022-10-30T14:23:24;27.50;20.70
418;DHT22;49;48.530;9.200;2022-10-30T14:26:17;27.50;21.20
418;DHT22;49;48.530;9.200;2022-10-30T14:28:53;27.50;20.90
418;DHT22;49;48.530;9.200;2022-10-30T14:31:33;27.40;21.00
418;DHT22;49;48.530;9.200;2022-10-30T14:34:00;27.40;21.70
418;DHT22;49;48.530;9.200;2022-10-30T14:36:48;27.30;21.80
418;DHT22;49;48.530;9.200;2022-10-30T14:39:28;27.20;22.20
418;DHT22;49;48.530;9.200;2022-10-30T14:42:10;27.20;21.90
418;DHT22;49;48.530;9.200;2022-10-30T14:44:59;27.20;22.10
418;DHT22;49;48.530;9.200;2022-10-30T14:47:53;27.10;22.60
418;DHT22;49;48.530;9.200;2022-10-30T14:50:30;27.00;22.60
418;DHT22;49;48.530;9.200;2022-10-30T14:53:09;27.00;22.60
418;DHT22;49;48.530;9.200;2022-10-30T14:55:52;27.00;22.40
418;DHT22;49;48.530;9.200;2022-10-30T14:58:23;26.90;22.50
418;DHT22;49;48.530;9.200;2022-10-30T15:01:07;26.90;22.50
418;DHT22;49;48.530;9.200;2022-10-30T15:03:52;26.80;23.00
418;DHT22;49;48.530;9.200;2022-10-30T15:06:24;26.70;23.20
418;DHT22;49;48.530;9.200;2022-10-30T15:09:14;26.60;24.20
418;DHT22;49;48.530;9.200;2022-10-30T15:11:54;26.50;24.80
418;DHT22;49;48.530;9.200;2022-10-30T15:14:27;26.40;25.50
418;DHT22;49;48.530;9.200;2022-10-30T15:16:55;26.30;26.20
418;DHT22;49;48.530;9.200;2022-10-30T15:19:24;26.20;26.60
418;DHT22;49;48.530;9.200;2022-10-30T15:21:54;26.20;26.20
418;DHT22;49;48.530;9.200;2022-10-30T15:24:23;26.10;26.30
418;DHT22;49;48.530;9.200;2022-10-30T15:26:53;26.10;26.50
418;DHT22;49;48.530;9.200;2022-10-30T15:29:23;26.00;27.10
418;DHT22;49;48.530;9.200;2022-10-30T15:31:58;25.90;28.00
418;DHT22;49;48.530;9.200;2022-10-30T15:34:29;25.80;31.20
418;DHT22;49;48.530;9.200;2022-10-30T15:36:58;25.70;32.70
418;DHT22;49;48.530;9.200;2022-10-30T15:39:25;25.50;33.90
418;DHT22;49;48.530;9.200;2022-10-30T15:41:53;25.50;35.60
418;DHT22;49;48.530;9.200;2022-10-30T15:44:23;25.40;38.20
418;DHT22;49;48.530;9.200;2022-10-30T15:46:53;25.30;38.90
418;DHT22;49;48.530;9.200;2022-10-30T15:49:29;25.20;40.40
418;DHT22;49;48.530;9.200;2022-10-30T15:51:58;25.10;41.80
418;DHT22;49;48.530;9.200;2022-10-30T15:54:26;25.10;43.80
418;DHT22;49;48.530;9.200;2022-10-30T15:56:55;25.00;43.80
418;DHT22;49;48.530;9.200;2022-10-30T15:59:24;25.10;44.00
418;DHT22;49;48.530;9.200;2022-10-30T16:01:54;25.00;40.30
418;DHT22;49;48.530;9.200;2022-10-30T16:04:23;25.00;40.70
418;DHT22;49;48.530;9.200;2022-10-30T16:06:53;24.90;43.70
418;DHT22;49;48.530;9.200;2022-10-30T16:09:20;24.80;45.40
418;DHT22;49;48.530;9.200;2022-10-30T16:11:49;24.70;43.20
418;DHT22;49;48.530;9.200;2022-10-30T16:14:20;24.70;44.30
418;DHT22;49;48.530;9.200;2022-10-30T16:16:48;24.60;43.80
418;DHT22;49;48.530;9.200;2022-10-30T16:19:21;24.50;44.30
418;DHT22;49;48.530;9.200;2022-10-30T16:21:51;24.40;44.80
418;DHT22;49;48.530;9.200;2022-10-30T16:24:21;24.40;45.70
418;DHT22;49;48.530;9.200;2022-10-30T16:27:01;24.20;46.30
418;DHT22;49;48.530;9.200;2022-10-30T16:29:29;24.10;44.90
418;DHT22;49;48.530;9.200;2022-10-30T16:31:56;24.00;46.30
418;DHT22;49;48.530;9.200;2022-10-30T16:34:25;24.00;46.90
418;DHT22;49;48.530;9.200;2022-10-30T16:36:58;23.90;46.00
418;DHT22;49;48.530;9.200;2022-10-30T16:39:25;23.90;45.00
418;DHT22;49;48.530;9.200;2022-10-30T16:41:55;23.70;40.60
418;DHT22;49;48.530;9.200;2022-10-30T16:44:26;23.70;42.00
418;DHT22;49;48.530;9.200;2022-10-30T16:46:55;23.60;41.20
418;DHT22;49;48.530;9.200;2022-10-30T16:49:24;23.50;45.70
418;DHT22;49;48.530;9.200;2022-10-30T16:51:57;23.60;47.00
418;DHT22;49;48.530;9.200;2022-10-30T16:54:27;23.40;40.30
418;DHT22;49;48.530;9.200;2022-10-30T16:56:56;23.30;40.20
418;DHT22;49;48.530;9.200;2022-10-30T16:59:30;23.20;46.90
418;DHT22;49;48.530;9.200;2022-10-30T17:02:00;23.10;49.70
418;DHT22;49;48.530;9.200;2022-10-30T17:04:31;23.10;44.30
418;DHT22;49;48.530;9.200;2022-10-30T17:07:14;23.20;52.80
418;DHT22;49;48.530;9.200;2022-10-30T17:09:44;23.10;50.80
418;DHT22;49;48.530;9.200;2022-10-30T17:12:15;23.10;53.30
418;DHT22;49;48.530;9.200;2022-10-30T17:14:50;23.20;53.70
418;DHT22;49;48.530;9.200;2022-10-30T17:17:22;23.20;52.50
418;DHT22;49;48.530;9.200;2022-10-30T17:19:55;23.10;51.10